Аэропорт: Нахичевань. Нахичевань

ICAO: UBBN

METAR:
2021-01-19 12:30:00
UBBN 191230Z 26008KT 9999 -SN OVC033 01/M03 Q1010 R14R/CLRD// NOSIG RMK MT OP QFE683
METAR:
2021-01-19 11:07:00
TAF UBBN 191107Z 1912/2012 VRB04KT 9999 SCT040 OVC090 TX06/1912Z TNM03/2003Z TEMPO 1912/1924 29010KT 5000 -SN BR OVC030 TEMPO 2000/2010 32014KT 1500 SN BR OVC020